sensor_id;sensor_type;location;lat;lon;timestamp;pressure;altitude;pressure_sealevel;temperature;humidity
63665;BME280;49820;33.966;73.390;2023-04-02T02:45:25;78619.53;;;11.18;82.64
63665;BME280;49820;33.966;73.390;2023-04-02T02:58:06;78632.59;;;12.84;77.76
63665;BME280;49820;33.966;73.390;2023-04-02T03:00:46;78605.31;;;12.77;79.08
63665;BME280;49820;33.966;73.390;2023-04-02T03:03:19;78638.94;;;12.53;74.13
63665;BME280;49820;33.966;73.390;2023-04-02T03:06:07;78638.59;;;12.43;76.56
63665;BME280;49820;33.966;73.390;2023-04-02T03:11:39;78648.38;;;11.61;82.47
63665;BME280;49820;33.966;73.390;2023-04-02T03:16:59;78653.59;;;11.90;78.70
63665;BME280;49820;33.966;73.390;2023-04-02T03:25:46;78639.38;;;14.35;88.89
63665;BME280;49820;33.966;73.390;2023-04-02T03:28:18;78635.03;;;15.30;94.96
63665;BME280;49820;33.966;73.390;2023-04-02T03:31:18;78632.00;;;15.21;84.44
63665;BME280;49820;33.966;73.390;2023-04-02T03:33:54;78640.38;;;15.80;85.84
63665;BME280;49820;33.966;73.390;2023-04-02T03:36:32;78629.72;;;15.92;97.15
63665;BME280;49820;33.966;73.390;2023-04-02T03:41:47;78641.19;;;16.39;95.60
63665;BME280;49820;33.966;73.390;2023-04-02T03:44:35;78650.75;;;16.36;95.75
63665;BME280;49820;33.966;73.390;2023-04-02T03:47:15;78633.50;;;16.14;94.93
63665;BME280;49820;33.966;73.390;2023-04-02T03:49:55;78647.66;;;15.98;89.28
63665;BME280;49820;33.966;73.390;2023-04-02T03:52:29;78645.75;;;15.96;89.05
63665;BME280;49820;33.966;73.390;2023-04-02T03:55:01;78642.19;;;15.69;90.79
63665;BME280;49820;33.966;73.390;2023-04-02T03:57:41;78645.28;;;15.58;90.44
63665;BME280;49820;33.966;73.390;2023-04-02T04:03:13;78628.38;;;15.77;93.57
63665;BME280;49820;33.966;73.390;2023-04-02T04:06:05;78665.63;;;16.03;89.75
63665;BME280;49820;33.966;73.390;2023-04-02T04:08:49;78651.84;;;15.63;92.45
63665;BME280;49820;33.966;73.390;2023-04-02T04:11:29;78661.38;;;15.27;84.98
63665;BME280;49820;33.966;73.390;2023-04-02T04:14:08;78664.56;;;15.15;100.00
63665;BME280;49820;33.966;73.390;2023-04-02T04:16:58;78656.38;;;15.34;81.42
63665;BME280;49820;33.966;73.390;2023-04-02T04:22:36;78678.50;;;15.19;98.43
63665;BME280;49820;33.966;73.390;2023-04-02T04:25:20;78673.91;;;14.99;82.25
63665;BME280;49820;33.966;73.390;2023-04-02T04:30:51;78679.88;;;15.18;98.20
63665;BME280;49820;33.966;73.390;2023-04-02T04:33:37;78688.00;;;14.83;90.87
63665;BME280;49820;33.966;73.390;2023-04-02T04:36:32;78692.16;;;14.97;99.86
63665;BME280;49820;33.966;73.390;2023-04-02T04:39:13;78689.06;;;14.90;98.52
63665;BME280;49820;33.966;73.390;2023-04-02T04:41:48;78680.19;;;15.10;96.46
63665;BME280;49820;33.966;73.390;2023-04-02T04:44:47;78685.00;;;15.24;91.08
63665;BME280;49820;33.966;73.390;2023-04-02T04:47:39;78688.47;;;14.33;96.37
63665;BME280;49820;33.966;73.390;2023-04-02T04:53:11;78685.06;;;14.54;98.30
63665;BME280;49820;33.966;73.390;2023-04-02T04:55:45;78665.56;;;14.72;100.00
63665;BME280;49820;33.966;73.390;2023-04-02T04:58:25;78691.34;;;15.00;93.25
63665;BME280;49820;33.966;73.390;2023-04-02T05:01:26;78678.50;;;14.84;100.00
63665;BME280;49820;33.966;73.390;2023-04-02T05:04:16;78675.03;;;14.52;91.00
63665;BME280;49820;33.966;73.390;2023-04-02T05:06:50;78692.38;;;14.36;95.48
63665;BME280;49820;33.966;73.390;2023-04-02T05:09:34;78695.00;;;14.57;94.58
63665;BME280;49820;33.966;73.390;2023-04-02T05:12:20;78690.09;;;14.26;96.38
63665;BME280;49820;33.966;73.390;2023-04-02T05:15:00;78698.22;;;14.43;95.77
63665;BME280;49820;33.966;73.390;2023-04-02T05:17:35;78700.53;;;14.16;94.22
63665;BME280;49820;33.966;73.390;2023-04-02T05:20:31;78706.72;;;14.31;88.99
63665;BME280;49820;33.966;73.390;2023-04-02T05:23:09;78697.59;;;14.42;100.00
63665;BME280;49820;33.966;73.390;2023-04-02T05:26:05;78696.03;;;14.29;87.38
63665;BME280;49820;33.966;73.390;2023-04-02T05:31:15;78695.81;;;14.54;81.57
63665;BME280;49820;33.966;73.390;2023-04-02T05:33:48;78717.13;;;14.76;86.16
63665;BME280;49820;33.966;73.390;2023-04-02T05:36:22;78709.19;;;14.91;86.25
63665;BME280;49820;33.966;73.390;2023-04-02T05:38:57;78703.00;;;14.59;89.38
63665;BME280;49820;33.966;73.390;2023-04-02T05:41:40;78714.94;;;15.50;89.36
63665;BME280;49820;33.966;73.390;2023-04-02T05:44:37;78708.47;;;14.57;69.21
63665;BME280;49820;33.966;73.390;2023-04-02T05:47:24;78713.47;;;14.84;83.21
63665;BME280;49820;33.966;73.390;2023-04-02T05:50:13;78716.72;;;15.05;82.46
63665;BME280;49820;33.966;73.390;2023-04-02T05:52:59;78712.78;;;15.02;81.61
63665;BME280;49820;33.966;73.390;2023-04-02T05:55:40;78681.25;;;14.65;79.34
63665;BME280;49820;33.966;73.390;2023-04-02T05:58:20;78710.63;;;14.52;70.08
63665;BME280;49820;33.966;73.390;2023-04-02T06:01:18;78706.19;;;13.89;85.66
63665;BME280;49820;33.966;73.390;2023-04-02T06:03:59;78717.75;;;13.46;80.52
63665;BME280;49820;33.966;73.390;2023-04-02T06:09:28;78723.41;;;12.94;90.09
63665;BME280;49820;33.966;73.390;2023-04-02T06:15:22;78711.78;;;12.81;96.94
63665;BME280;49820;33.966;73.390;2023-04-02T06:18:17;78725.09;;;12.62;88.70
63665;BME280;49820;33.966;73.390;2023-04-02T06:20:50;78704.72;;;13.13;86.01
63665;BME280;49820;33.966;73.390;2023-04-02T06:28:51;78719.13;;;13.84;73.12
63665;BME280;49820;33.966;73.390;2023-04-02T06:32:01;78715.22;;;13.21;76.05
63665;BME280;49820;33.966;73.390;2023-04-02T06:34:41;78712.59;;;12.75;79.44
63665;BME280;49820;33.966;73.390;2023-04-02T06:46:46;78721.69;;;12.64;100.00
63665;BME280;49820;33.966;73.390;2023-04-02T06:52:02;78704.84;;;13.09;97.20
63665;BME280;49820;33.966;73.390;2023-04-02T06:54:33;78706.88;;;12.87;100.00
63665;BME280;49820;33.966;73.390;2023-04-02T06:57:08;78691.19;;;12.96;100.00
63665;BME280;49820;33.966;73.390;2023-04-02T06:59:41;78674.09;;;12.64;92.64
63665;BME280;49820;33.966;73.390;2023-04-02T07:02:33;78714.72;;;12.50;97.07
63665;BME280;49820;33.966;73.390;2023-04-02T07:05:08;78680.06;;;12.23;100.00
63665;BME280;49820;33.966;73.390;2023-04-02T07:07:42;78677.22;;;11.83;100.00
63665;BME280;49820;33.966;73.390;2023-04-02T07:10:12;78704.22;;;11.98;100.00
63665;BME280;49820;33.966;73.390;2023-04-02T07:12:41;78705.56;;;11.50;100.00
63665;BME280;49820;33.966;73.390;2023-04-02T07:15:15;78706.56;;;11.38;100.00
63665;BME280;49820;33.966;73.390;2023-04-02T07:17:45;78705.94;;;11.35;100.00
63665;BME280;49820;33.966;73.390;2023-04-02T07:20:31;78682.47;;;10.88;100.00
63665;BME280;49820;33.966;73.390;2023-04-02T07:23:04;78706.16;;;11.02;100.00
63665;BME280;49820;33.966;73.390;2023-04-02T07:25:33;78699.06;;;10.93;100.00
63665;BME280;49820;33.966;73.390;2023-04-02T07:28:04;78703.84;;;10.88;100.00
63665;BME280;49820;33.966;73.390;2023-04-02T07:30:34;78669.94;;;10.56;100.00
63665;BME280;49820;33.966;73.390;2023-04-02T07:33:04;78684.84;;;10.47;100.00
63665;BME280;49820;33.966;73.390;2023-04-02T07:35:33;78679.97;;;10.28;100.00
63665;BME280;49820;33.966;73.390;2023-04-02T07:38:03;78682.69;;;10.26;100.00
63665;BME280;49820;33.966;73.390;2023-04-02T07:40:32;78697.09;;;10.64;100.00
63665;BME280;49820;33.966;73.390;2023-04-02T07:43:03;78691.09;;;10.64;100.00
63665;BME280;49820;33.966;73.390;2023-04-02T07:45:32;78678.09;;;10.77;100.00
63665;BME280;49820;33.966;73.390;2023-04-02T07:48:09;78655.63;;;10.67;100.00
63665;BME280;49820;33.966;73.390;2023-04-02T07:50:39;78679.97;;;10.82;100.00
63665;BME280;49820;33.966;73.390;2023-04-02T07:53:24;78677.25;;;10.84;100.00
63665;BME280;49820;33.966;73.390;2023-04-02T07:55:57;78664.75;;;10.50;100.00
63665;BME280;49820;33.966;73.390;2023-04-02T07:58:30;78661.78;;;10.35;100.00
63665;BME280;49820;33.966;73.390;2023-04-02T08:01:00;78663.22;;;10.30;100.00
63665;BME280;49820;33.966;73.390;2023-04-02T08:03:31;78672.47;;;10.62;100.00
63665;BME280;49820;33.966;73.390;2023-04-02T08:06:00;78646.78;;;10.73;100.00
63665;BME280;49820;33.966;73.390;2023-04-02T08:08:29;78668.38;;;11.17;100.00
63665;BME280;49820;33.966;73.390;2023-04-02T08:10:58;78656.78;;;11.24;100.00
63665;BME280;49820;33.966;73.390;2023-04-02T08:13:28;78657.28;;;11.78;100.00
63665;BME280;49820;33.966;73.390;2023-04-02T08:15:58;78661.16;;;11.83;100.00
63665;BME280;49820;33.966;73.390;2023-04-02T08:18:29;78655.72;;;12.08;100.00
63665;BME280;49820;33.966;73.390;2023-04-02T08:20:58;78642.66;;;11.98;100.00
63665;BME280;49820;33.966;73.390;2023-04-02T08:23:29;78642.22;;;11.67;100.00
63665;BME280;49820;33.966;73.390;2023-04-02T08:25:59;78650.59;;;11.30;100.00
63665;BME280;49820;33.966;73.390;2023-04-02T08:28:28;78650.44;;;11.36;100.00
63665;BME280;49820;33.966;73.390;2023-04-02T08:30:58;78638.72;;;11.25;100.00
63665;BME280;49820;33.966;73.390;2023-04-02T08:33:29;78640.97;;;11.64;100.00
63665;BME280;49820;33.966;73.390;2023-04-02T08:36:00;78601.88;;;11.75;98.37
63665;BME280;49820;33.966;73.390;2023-04-02T08:38:30;78568.59;;;12.11;95.35
63665;BME280;49820;33.966;73.390;2023-04-02T08:41:01;78625.38;;;13.20;93.63
63665;BME280;49820;33.966;73.390;2023-04-02T08:43:45;78617.44;;;13.36;93.21
63665;BME280;49820;33.966;73.390;2023-04-02T08:46:47;78608.47;;;13.23;97.75
63665;BME280;49820;33.966;73.390;2023-04-02T08:49:49;78610.06;;;12.56;92.61
63665;BME280;49820;33.966;73.390;2023-04-02T08:52:28;78602.31;;;12.25;98.57
63665;BME280;49820;33.966;73.390;2023-04-02T08:55:00;78611.75;;;12.24;100.00
63665;BME280;49820;33.966;73.390;2023-04-02T09:00:48;78611.97;;;13.20;95.67
63665;BME280;49820;33.966;73.390;2023-04-02T09:05:58;78603.97;;;12.37;97.47
63665;BME280;49820;33.966;73.390;2023-04-02T09:08:31;78590.75;;;12.10;96.95
63665;BME280;49820;33.966;73.390;2023-04-02T09:11:03;78598.38;;;12.01;95.92
63665;BME280;49820;33.966;73.390;2023-04-02T09:13:39;78593.19;;;11.74;100.00
63665;BME280;49820;33.966;73.390;2023-04-02T09:16:17;78589.59;;;11.59;98.81
63665;BME280;49820;33.966;73.390;2023-04-02T09:18:52;78595.09;;;11.53;96.56
63665;BME280;49820;33.966;73.390;2023-04-02T09:21:37;78589.72;;;11.32;100.00
63665;BME280;49820;33.966;73.390;2023-04-02T09:24:13;78576.38;;;11.30;100.00
63665;BME280;49820;33.966;73.390;2023-04-02T09:26:42;78572.16;;;11.15;100.00
63665;BME280;49820;33.966;73.390;2023-04-02T09:31:54;78584.53;;;11.95;100.00
63665;BME280;49820;33.966;73.390;2023-04-02T09:34:29;78576.94;;;11.80;100.00
63665;BME280;49820;33.966;73.390;2023-04-02T09:37:24;78549.47;;;11.14;100.00
63665;BME280;49820;33.966;73.390;2023-04-02T09:40:13;78575.28;;;10.98;100.00
63665;BME280;49820;33.966;73.390;2023-04-02T09:42:44;78552.03;;;10.70;100.00
63665;BME280;49820;33.966;73.390;2023-04-02T09:45:23;78568.47;;;10.79;100.00
63665;BME280;49820;33.966;73.390;2023-04-02T09:47:53;78552.69;;;10.46;100.00
63665;BME280;49820;33.966;73.390;2023-04-02T09:50:30;78561.63;;;10.61;100.00
63665;BME280;49820;33.966;73.390;2023-04-02T09:53:36;78552.91;;;10.38;100.00
63665;BME280;49820;33.966;73.390;2023-04-02T09:56:20;78550.59;;;10.23;100.00
63665;BME280;49820;33.966;73.390;2023-04-02T10:01:45;78553.72;;;10.05;100.00
63665;BME280;49820;33.966;73.390;2023-04-02T10:07:36;78551.72;;;9.79;100.00
63665;BME280;49820;33.966;73.390;2023-04-02T10:18:59;78544.44;;;9.75;100.00
63665;BME280;49820;33.966;73.390;2023-04-02T10:21:37;78533.78;;;9.75;100.00
63665;BME280;49820;33.966;73.390;2023-04-02T10:24:16;78538.25;;;10.10;100.00
63665;BME280;49820;33.966;73.390;2023-04-02T10:26:56;78533.81;;;10.27;100.00
63665;BME280;49820;33.966;73.390;2023-04-02T10:55:06;78526.72;;;10.92;100.00
63665;BME280;49820;33.966;73.390;2023-04-02T10:57:43;78518.75;;;10.90;100.00
63665;BME280;49820;33.966;73.390;2023-04-02T11:00:32;78527.34;;;10.45;100.00
63665;BME280;49820;33.966;73.390;2023-04-02T11:03:12;78501.34;;;10.18;100.00
63665;BME280;49820;33.966;73.390;2023-04-02T11:08:38;78535.38;;;10.45;100.00
63665;BME280;49820;33.966;73.390;2023-04-02T11:11:16;78529.41;;;10.42;100.00
63665;BME280;49820;33.966;73.390;2023-04-02T11:16:19;78514.25;;;10.35;100.00
63665;BME280;49820;33.966;73.390;2023-04-02T11:21:47;78528.88;;;10.38;100.00
63665;BME280;49820;33.966;73.390;2023-04-02T11:24:35;78533.00;;;10.32;100.00
63665;BME280;49820;33.966;73.390;2023-04-02T11:32:48;78525.00;;;10.32;100.00
63665;BME280;49820;33.966;73.390;2023-04-02T11:40:55;78512.34;;;10.31;100.00
63665;BME280;49820;33.966;73.390;2023-04-02T11:46:03;78520.84;;;10.13;100.00
63665;BME280;49820;33.966;73.390;2023-04-02T11:48:34;78513.63;;;10.07;100.00
63665;BME280;49820;33.966;73.390;2023-04-02T11:53:51;78517.28;;;9.95;100.00
63665;BME280;49820;33.966;73.390;2023-04-02T11:56:39;78524.16;;;9.86;100.00
63665;BME280;49820;33.966;73.390;2023-04-02T12:02:18;78523.16;;;9.73;100.00
63665;BME280;49820;33.966;73.390;2023-04-02T12:05:03;78515.50;;;9.59;100.00
63665;BME280;49820;33.966;73.390;2023-04-02T12:10:31;78515.13;;;9.48;100.00
63665;BME280;49820;33.966;73.390;2023-04-02T12:13:02;78497.03;;;9.24;100.00
63665;BME280;49820;33.966;73.390;2023-04-02T12:20:50;78497.53;;;9.31;100.00
63665;BME280;49820;33.966;73.390;2023-04-02T12:23:39;78498.78;;;9.34;100.00
63665;BME280;49820;33.966;73.390;2023-04-02T12:26:27;78522.47;;;9.48;100.00
63665;BME280;49820;33.966;73.390;2023-04-02T12:29:25;78521.22;;;9.43;100.00
63665;BME280;49820;33.966;73.390;2023-04-02T12:31:56;78526.53;;;9.45;100.00
63665;BME280;49820;33.966;73.390;2023-04-02T12:34:29;78508.06;;;9.08;100.00
63665;BME280;49820;33.966;73.390;2023-04-02T12:37:03;78511.19;;;9.16;100.00
63665;BME280;49820;33.966;73.390;2023-04-02T12:39:34;78504.59;;;9.13;100.00
63665;BME280;49820;33.966;73.390;2023-04-02T12:42:04;78505.31;;;9.12;100.00
63665;BME280;49820;33.966;73.390;2023-04-02T12:44:34;78507.97;;;9.12;100.00
63665;BME280;49820;33.966;73.390;2023-04-02T12:47:03;78490.38;;;8.94;100.00
63665;BME280;49820;33.966;73.390;2023-04-02T12:49:35;78503.06;;;8.94;100.00
63665;BME280;49820;33.966;73.390;2023-04-02T12:52:12;78494.13;;;8.76;100.00
63665;BME280;49820;33.966;73.390;2023-04-02T12:54:56;78484.47;;;8.61;100.00
63665;BME280;49820;33.966;73.390;2023-04-02T13:00:42;78492.91;;;8.40;100.00
63665;BME280;49820;33.966;73.390;2023-04-02T13:03:27;78474.41;;;8.01;100.00
